Time;durP1;ratioP1;P1;durP2;ratioP2;P2;SDS_P1;SDS_P2;PMS_P1;PMS_P2;Temp;Humidity;BMP_temperature;BMP_pressure;BME280_temperature;BME280_humidity;BME280_pressure;Samples;Min_cycle;Max_cycle;Signal;HPM_P1;HPM_P2
2021/08/06 00:02:24;;;;;;;3.70;3.40;;;;;;;14.36;89.42;97188.44;511986;1092;103137;-42
2021/08/06 00:12:32;;;;;;;3.98;3.58;;;;;;;14.31;89.33;97181.33;512250;1092;103133;-42
2021/08/06 00:22:40;;;;;;;3.80;3.03;;;;;;;14.25;89.57;97177.17;512125;1091;103115;-42
2021/08/06 00:32:47;;;;;;;3.10;2.80;;;;;;;14.23;89.48;97186.52;512102;1091;103132;-41
2021/08/06 00:42:56;;;;;;;3.50;3.20;;;;;;;14.18;89.95;97197.20;512072;1092;103165;-41
2021/08/06 00:53:04;;;;;;;5.80;3.23;;;;;;;14.12;89.74;97191.97;511995;1092;103156;-41
2021/08/06 01:03:12;;;;;;;2.70;2.50;;;;;;;14.04;90.13;97192.62;511964;1092;103569;-41
2021/08/06 01:13:25;;;;;;;3.00;2.60;;;;;;;13.96;90.30;97187.95;512091;1093;103505;-41
2021/08/06 01:23:35;;;;;;;4.00;3.27;;;;;;;13.89;90.67;97182.18;512071;1092;103131;-42
2021/08/06 01:33:44;;;;;;;2.80;2.57;;;;;;;13.82;90.51;97181.75;512941;1093;103054;-42
2021/08/06 01:43:52;;;;;;;3.75;2.73;;;;;;;13.78;90.64;97188.72;512074;1092;104270;-42
2021/08/06 01:54:01;;;;;;;2.57;2.37;;;;;;;13.71;90.67;97178.41;511950;1093;103192;-41
2021/08/06 02:04:10;;;;;;;3.10;2.27;;;;;;;13.65;90.66;97178.77;512129;1092;103543;-42
2021/08/06 02:14:19;;;;;;;2.47;2.27;;;;;;;13.61;90.83;97180.42;512077;1092;103112;-40
2021/08/06 02:24:31;;;;;;;2.80;2.60;;;;;;;13.59;90.81;97174.59;512057;1091;103114;-43
2021/08/06 02:34:39;;;;;;;3.07;2.57;;;;;;;13.57;91.00;97168.78;512021;1092;103156;-41
2021/08/06 02:44:46;;;;;;;4.33;3.83;;;;;;;13.58;91.29;97157.09;512066;1092;103131;-42
2021/08/06 02:54:54;;;;;;;3.27;2.97;;;;;;;13.61;91.19;97148.55;511901;1092;103092;-43
2021/08/06 03:05:02;;;;;;;4.60;3.20;;;;;;;13.66;91.39;97151.92;512003;1093;103473;-42
2021/08/06 03:15:11;;;;;;;4.43;3.23;;;;;;;13.72;91.24;97142.02;511932;1091;103521;-42
2021/08/06 03:25:19;;;;;;;3.30;3.10;;;;;;;13.78;91.61;97147.00;512330;1092;103127;-41
2021/08/06 03:35:24;;;;;;;4.03;3.50;;;;;;;13.83;91.60;97154.89;512105;1091;103530;-41
2021/08/06 03:45:32;;;;;;;4.47;3.70;;;;;;;13.91;91.59;97150.80;511963;1092;103111;-42
2021/08/06 03:55:40;;;;;;;4.93;3.73;;;;;;;13.97;91.54;97149.67;512194;1092;103140;-43
2021/08/06 04:05:48;;;;;;;4.00;3.60;;;;;;;13.97;91.65;97154.98;512129;1092;103123;-43
2021/08/06 04:15:55;;;;;;;4.10;3.80;;;;;;;13.99;91.62;97160.80;512005;1092;103114;-42
2021/08/06 04:26:03;;;;;;;3.80;3.50;;;;;;;14.03;91.77;97168.98;511913;1092;103198;-41
2021/08/06 04:36:11;;;;;;;4.80;3.57;;;;;;;14.08;91.65;97172.36;512117;1092;103153;-42
2021/08/06 04:46:19;;;;;;;5.13;2.87;;;;;;;14.10;91.66;97174.72;511927;1092;103451;-41
2021/08/06 04:56:26;;;;;;;4.00;2.70;;;;;;;14.00;91.71;97183.64;512116;1092;103163;-41
2021/08/06 05:06:35;;;;;;;2.80;2.60;;;;;;;13.90;91.46;97194.39;512338;1092;103165;-41
2021/08/06 05:16:42;;;;;;;2.90;2.70;;;;;;;13.82;91.32;97195.03;512150;1092;103058;-41
2021/08/06 05:26:50;;;;;;;3.07;2.77;;;;;;;13.77;91.31;97192.45;511951;1092;103126;-42
2021/08/06 05:36:58;;;;;;;4.03;2.57;;;;;;;13.78;91.21;97208.09;512122;1092;103138;-42
2021/08/06 05:47:03;;;;;;;5.23;2.80;;;;;;;13.77;91.34;97211.04;511991;1091;103156;-42
2021/08/06 05:57:11;;;;;;;3.73;3.10;;;;;;;13.82;91.23;97200.34;512088;1092;103192;-41
2021/08/06 06:07:19;;;;;;;3.10;2.77;;;;;;;13.86;91.03;97211.19;512094;1092;103172;-43
2021/08/06 06:17:27;;;;;;;3.40;3.10;;;;;;;13.93;91.04;97233.67;512358;1092;103140;-42
2021/08/06 06:27:34;;;;;;;3.47;3.10;;;;;;;14.02;90.87;97231.19;511909;1092;103136;-41
2021/08/06 06:37:42;;;;;;;2.93;2.63;;;;;;;14.07;90.77;97231.91;512081;1092;103546;-41
2021/08/06 06:47:50;;;;;;;;;;;;;;;14.13;90.66;97256.55;512053;1092;103530;-42
2021/08/06 06:57:59;;;;;;;3.67;3.37;;;;;;;14.21;90.60;97261.25;512188;1091;103461;-41
2021/08/06 07:08:07;;;;;;;3.30;3.00;;;;;;;14.24;90.53;97260.67;511859;1092;103492;-42
2021/08/06 07:18:15;;;;;;;5.10;3.90;;;;;;;14.25;90.55;97266.78;512155;1092;103113;-41
2021/08/06 07:28:24;;;;;;;5.27;4.87;;;;;;;14.29;90.71;97284.53;512057;1091;103089;-42
2021/08/06 07:38:31;;;;;;;3.33;2.40;;;;;;;14.48;90.46;97291.77;512128;1092;103062;-41
2021/08/06 07:48:39;;;;;;;2.88;2.23;;;;;;;14.81;90.06;97300.59;512115;1092;103111;-43
2021/08/06 07:58:47;;;;;;;2.17;1.90;;;;;;;14.91;89.63;97317.22;512039;1092;103408;-41
2021/08/06 08:08:55;;;;;;;5.53;2.13;;;;;;;15.00;89.29;97323.45;512013;1092;103136;-41
2021/08/06 08:19:03;;;;;;;1.70;1.60;;;;;;;15.11;88.20;97326.73;512239;1092;103390;-41
2021/08/06 08:29:09;;;;;;;1.77;1.67;;;;;;;14.92;87.47;97339.30;512114;1092;103099;-42
2021/08/06 08:49:30;;;;;;;3.17;2.60;;;;;;;15.14;86.74;97351.98;512165;1092;103084;-42
2021/08/06 08:59:38;;;;;;;2.67;2.20;;;;;;;15.00;85.12;97363.38;512127;1092;103528;-41
2021/08/06 09:09:44;;;;;;;3.43;2.00;;;;;;;14.86;85.65;97359.84;511893;1092;103129;-42
2021/08/06 09:19:58;;;;;;;3.55;2.15;;;;;;;15.17;85.75;97356.76;512096;1092;103507;-41
2021/08/06 09:30:07;;;;;;;2.23;2.00;;;;;;;15.20;85.40;97375.61;512175;1092;103071;-42
2021/08/06 09:40:16;;;;;;;2.10;1.90;;;;;;;14.90;85.33;97390.13;511974;1092;103655;-41
2021/08/06 09:50:24;;;;;;;4.25;3.10;;;;;;;14.98;85.85;97378.85;511978;1092;103474;-44
2021/08/06 10:00:33;;;;;;;3.58;3.28;;;;;;;15.29;86.44;97384.51;511926;1092;103489;-42
2021/08/06 10:10:41;;;;;;;4.00;3.25;;;;;;;15.77;86.22;97383.49;512182;1092;103089;-40
2021/08/06 10:20:47;;;;;;;3.47;3.13;;;;;;;16.10;85.95;97386.92;512010;1092;103483;-42
2021/08/06 10:31:17;;;;;;;4.55;2.95;;;;;;;15.75;85.24;97410.44;512071;1092;103080;-41
2021/08/06 10:41:25;;;;;;;2.73;2.37;;;;;;;15.44;84.78;97431.44;512222;1092;103061;-40
2021/08/06 10:51:31;;;;;;;2.93;2.23;;;;;;;15.30;84.39;97430.57;512080;1093;103157;-41
2021/08/06 11:21:59;;;;;;;1.67;1.57;;;;;;;15.58;83.51;97429.63;512224;1093;103146;-40
2021/08/06 11:32:14;;;;;;;4.33;3.07;;;;;;;15.83;82.96;97439.08;512181;1091;103447;-42
2021/08/06 11:42:26;;;;;;;3.00;2.17;;;;;;;15.95;83.05;97439.42;512048;1092;104178;-41
2021/08/06 12:02:44;;;;;;;3.27;1.93;;;;;;;16.23;82.13;97447.46;512072;1092;103182;-41
2021/08/06 12:12:51;;;;;;;;;;;;;;;16.31;80.01;97436.09;512444;1092;103135;-40
2021/08/06 12:22:59;;;;;;;2.80;1.43;;;;;;;16.45;79.29;97449.45;511949;1092;103522;-42
2021/08/06 12:33:21;;;;;;;6.60;1.97;;;;;;;16.67;76.86;97467.48;512072;1092;104522;-41
2021/08/06 12:43:29;;;;;;;4.40;1.90;;;;;;;16.75;76.91;97488.92;512137;1092;103412;-43
2021/08/06 12:53:37;;;;;;;2.27;1.40;;;;;;;16.88;75.03;97496.14;512299;1091;103447;-42
2021/08/06 13:03:44;;;;;;;2.87;1.83;;;;;;;16.99;72.74;97506.61;511926;1092;103140;-40
2021/08/06 13:13:53;;;;;;;2.43;1.13;;;;;;;17.13;70.64;97510.06;512040;1092;103147;-41
2021/08/06 13:24:01;;;;;;;3.18;1.63;;;;;;;17.15;68.61;97506.01;512083;1092;103467;-41
2021/08/06 13:34:08;;;;;;;1.50;0.90;;;;;;;17.24;64.60;97508.75;512195;1092;103532;-42
2021/08/06 13:44:16;;;;;;;6.40;1.47;;;;;;;17.04;63.39;97530.56;512089;1093;103137;-41
2021/08/06 13:54:23;;;;;;;3.83;1.90;;;;;;;16.78;63.17;97555.06;512252;1092;103089;-41
2021/08/06 14:04:31;;;;;;;2.18;1.03;;;;;;;16.69;61.97;97558.72;511946;1092;103073;-41
2021/08/06 14:14:40;;;;;;;1.67;1.00;;;;;;;16.79;61.49;97575.33;512217;1092;103126;-41
2021/08/06 14:24:48;;;;;;;1.83;1.20;;;;;;;16.98;59.51;97582.47;512172;1091;103128;-41
2021/08/06 14:34:56;;;;;;;1.68;1.10;;;;;;;17.46;60.90;97578.28;512115;1092;103819;-40
2021/08/06 14:45:04;;;;;;;1.10;1.00;;;;;;;17.40;59.50;97586.72;512135;1092;103177;-41
2021/08/06 14:55:14;;;;;;;1.80;1.40;;;;;;;17.55;60.55;97599.77;512308;1091;103114;-41
2021/08/06 15:05:20;;;;;;;1.17;1.00;;;;;;;17.83;59.09;97599.73;512230;1093;103183;-41
2021/08/06 15:15:28;;;;;;;1.07;0.97;;;;;;;17.96;59.34;97598.89;512124;1092;103481;-41
2021/08/06 15:25:36;;;;;;;2.10;1.17;;;;;;;17.96;59.98;97596.22;512078;1092;103129;-41
2021/08/06 15:45:53;;;;;;;6.50;1.73;;;;;;;17.21;61.09;97624.22;512214;1092;103131;-40
2021/08/06 15:56:01;;;;;;;1.10;0.97;;;;;;;16.97;61.81;97637.76;512085;1092;103593;-41
2021/08/06 16:06:08;;;;;;;1.53;1.43;;;;;;;16.82;62.75;97638.05;512156;1091;103137;-42
2021/08/06 16:16:16;;;;;;;1.50;1.40;;;;;;;16.73;63.46;97637.13;512031;1091;103236;-41
2021/08/06 16:26:24;;;;;;;5.60;2.60;;;;;;;16.75;63.81;97642.95;512119;1092;103530;-41
2021/08/06 16:36:32;;;;;;;5.05;2.55;;;;;;;16.97;64.01;97637.76;512114;1092;103582;-40
2021/08/06 16:46:40;;;;;;;3.20;1.63;;;;;;;16.82;64.25;97641.52;511949;1092;103493;-42
2021/08/06 16:56:48;;;;;;;1.50;1.15;;;;;;;16.61;64.45;97639.45;512164;1092;103144;-40
2021/08/06 17:06:56;;;;;;;3.93;1.93;;;;;;;16.47;65.18;97640.19;512221;1092;103115;-39
2021/08/06 17:17:04;;;;;;;3.67;2.50;;;;;;;16.42;65.48;97631.48;512251;1092;103467;-41
2021/08/06 17:27:12;;;;;;;4.65;2.00;;;;;;;16.33;65.85;97625.23;512212;1091;103127;-41
2021/08/06 17:37:20;;;;;;;6.07;2.73;;;;;;;16.18;66.07;97611.03;511915;1092;103387;-41
2021/08/06 17:47:28;;;;;;;11.10;3.00;;;;;;;16.06;66.43;97613.34;512171;1092;103151;-41
2021/08/06 17:57:35;;;;;;;7.77;2.90;;;;;;;15.79;66.91;97610.54;511959;1091;103116;-40
2021/08/06 18:07:43;;;;;;;5.65;3.40;;;;;;;15.32;67.44;97612.17;511972;1093;103073;-41
2021/08/06 18:17:51;;;;;;;4.73;3.18;;;;;;;14.83;68.23;97623.09;512320;1092;103086;-41
2021/08/06 18:27:59;;;;;;;12.13;3.10;;;;;;;14.47;68.84;97630.63;512019;1092;103126;-40
2021/08/06 18:38:07;;;;;;;7.00;4.30;;;;;;;14.30;69.54;97653.05;512073;1091;103435;-41
2021/08/06 18:58:21;;;;;;;12.17;6.13;;;;;;;14.09;70.38;97665.68;511991;1093;103131;-41
2021/08/06 19:08:28;;;;;;;12.80;6.93;;;;;;;13.87;70.72;97665.27;512136;1092;103533;-39
2021/08/06 19:18:37;;;;;;;10.83;5.60;;;;;;;13.31;70.82;97673.48;512087;1092;103125;-41
2021/08/06 19:28:45;;;;;;;10.95;6.35;;;;;;;13.00;71.55;97682.53;511852;1093;103140;-42
2021/08/06 19:59:08;;;;;;;16.90;7.90;;;;;;;12.28;72.76;97701.09;511948;1092;104157;-40
2021/08/06 20:09:16;;;;;;;18.28;6.98;;;;;;;11.91;73.28;97690.70;512152;1092;103473;-41
2021/08/06 20:19:23;;;;;;;20.70;9.45;;;;;;;11.83;73.47;97696.52;511986;1092;103467;-41
2021/08/06 20:29:33;;;;;;;11.00;7.80;;;;;;;11.78;74.08;97703.59;511979;1092;103508;-41
2021/08/06 20:39:41;;;;;;;11.43;7.17;;;;;;;11.72;74.06;97713.38;512128;1092;103166;-43
2021/08/06 20:49:49;;;;;;;10.10;6.70;;;;;;;11.58;74.47;97715.69;512279;1091;103116;-41
2021/08/06 20:59:56;;;;;;;8.93;6.40;;;;;;;11.55;74.74;97713.56;512014;1092;103604;-42
2021/08/06 21:10:02;;;;;;;13.50;5.80;;;;;;;11.51;75.05;97719.63;512047;1093;103405;-40
2021/08/06 21:20:13;;;;;;;9.63;6.73;;;;;;;11.53;75.03;97717.52;511992;1092;103386;-40
2021/08/06 21:30:21;;;;;;;9.93;5.90;;;;;;;11.54;75.67;97727.85;512091;1092;103113;-41
2021/08/06 21:40:28;;;;;;;15.67;4.80;;;;;;;11.45;75.81;97737.34;511973;1092;103547;-40
2021/08/06 21:50:36;;;;;;;8.53;5.40;;;;;;;11.50;75.86;97732.08;512029;1092;103486;-41
2021/08/06 22:00:44;;;;;;;15.90;8.67;;;;;;;11.55;75.43;97740.03;512108;1092;103119;-41
2021/08/06 22:10:52;;;;;;;21.40;13.93;;;;;;;11.53;75.63;97728.91;511984;1092;103095;-41
2021/08/06 22:21:00;;;;;;;14.65;9.50;;;;;;;11.44;76.00;97733.11;512216;1092;103121;-42
2021/08/06 22:31:07;;;;;;;12.13;7.23;;;;;;;11.32;76.14;97738.59;512054;1092;103511;-41
2021/08/06 22:41:15;;;;;;;9.20;6.77;;;;;;;11.25;76.27;97732.73;512058;1090;103149;-41
2021/08/06 22:51:22;;;;;;;8.10;5.20;;;;;;;11.29;76.47;97733.80;511885;1092;103153;-41
2021/08/06 23:01:31;;;;;;;6.97;4.67;;;;;;;11.52;76.76;97731.81;511969;1091;103460;-42
2021/08/06 23:11:39;;;;;;;10.83;4.83;;;;;;;11.81;76.42;97732.23;512161;1092;103131;-42
2021/08/06 23:21:47;;;;;;;7.67;4.50;;;;;;;11.92;76.90;97729.38;512072;1092;103047;-41
2021/08/06 23:31:54;;;;;;;9.03;6.47;;;;;;;11.92;76.91;97728.58;511964;1092;103093;-41
2021/08/06 23:42:02;;;;;;;10.83;6.63;;;;;;;11.83;76.91;97717.70;512022;1091;103499;-42
2021/08/06 23:52:08;;;;;;;8.77;6.20;;;;;;;11.85;77.16;97722.73;511878;1092;103166;-41
